Time;durP1;ratioP1;P1;durP2;ratioP2;P2;SDS_P1;SDS_P2;PMS_P1;PMS_P2;Temp;Humidity;BMP_temperature;BMP_pressure;BME280_temperature;BME280_humidity;BME280_pressure;Samples;Min_cycle;Max_cycle;Signal;HPM_P1;HPM_P2
2021/01/11 00:00:58;;;;;;;11.27;8.60;;;;;;;10.30;47.32;101316.31;4903932;28;99711;-62
2021/01/11 00:03:24;;;;;;;10.65;8.73;;;;;;;10.31;47.24;101317.94;4903808;28;112440;-61
2021/01/11 00:05:50;;;;;;;10.70;8.32;;;;;;;10.28;47.38;101318.41;4903335;28;118987;-61
2021/01/11 00:08:16;;;;;;;10.80;8.60;;;;;;;10.31;47.58;101328.72;4903763;28;128877;-61
2021/01/11 00:10:42;;;;;;;9.82;8.00;;;;;;;10.28;47.79;101323.81;4902665;28;128005;-61
2021/01/11 00:13:08;;;;;;;10.10;8.65;;;;;;;10.31;47.29;101326.03;4902897;28;127392;-61
2021/01/11 00:15:34;;;;;;;11.45;8.57;;;;;;;10.22;47.25;101322.88;4903554;28;117855;-62
2021/01/11 00:18:01;;;;;;;10.73;9.00;;;;;;;10.26;47.12;101323.25;4900997;28;127390;-61
2021/01/11 00:20:27;;;;;;;10.45;8.32;;;;;;;10.21;47.20;101318.53;4904504;28;98809;-61
2021/01/11 00:22:53;;;;;;;9.85;8.25;;;;;;;10.26;47.22;101315.16;4903277;28;127217;-61
2021/01/11 00:25:19;;;;;;;9.93;8.38;;;;;;;10.30;47.80;101325.22;4886389;28;98242;-61
2021/01/11 00:27:45;;;;;;;10.00;8.32;;;;;;;10.24;47.76;101314.56;4903158;28;128673;-61
2021/01/11 00:30:12;;;;;;;10.30;8.38;;;;;;;10.24;47.89;101315.38;4901351;28;129382;-61
2021/01/11 00:32:39;;;;;;;10.23;8.15;;;;;;;10.21;47.17;101318.53;4903874;28;98022;-61
2021/01/11 00:35:06;;;;;;;10.23;8.10;;;;;;;10.27;47.89;101317.59;4886570;28;97811;-61
2021/01/11 00:37:33;;;;;;;9.57;7.95;;;;;;;10.24;46.97;101317.25;4903385;28;114115;-61
2021/01/11 00:39:59;;;;;;;10.73;8.27;;;;;;;10.22;47.12;101319.38;4903764;28;98324;-61
2021/01/11 00:42:25;;;;;;;9.45;7.68;;;;;;;10.27;47.50;101314.91;4902384;28;127614;-61
2021/01/11 00:44:51;;;;;;;9.82;8.07;;;;;;;10.27;46.95;101311.41;4903900;28;109722;-61
2021/01/11 00:47:17;;;;;;;9.60;8.27;;;;;;;10.26;47.50;101307.91;4902573;28;128833;-61
2021/01/11 00:49:43;;;;;;;10.23;8.73;;;;;;;10.28;46.73;101302.25;4902938;28;126683;-61
2021/01/11 00:52:10;;;;;;;10.15;8.27;;;;;;;10.32;46.82;101309.59;4902404;28;128079;-61
2021/01/11 00:54:37;;;;;;;10.50;8.25;;;;;;;10.37;46.36;101305.34;4897153;28;113411;-62
2021/01/11 00:57:03;;;;;;;10.88;8.40;;;;;;;10.37;46.70;101306.16;4865995;28;101195;-61
2021/01/11 00:59:29;;;;;;;11.23;8.65;;;;;;;10.41;47.16;101307.31;4865855;28;99380;-61
2021/01/11 01:01:56;;;;;;;10.00;8.20;;;;;;;10.43;46.08;101313.28;4883317;28;127728;-61
2021/01/11 01:04:22;;;;;;;11.13;8.65;;;;;;;10.41;46.45;101315.38;4884025;28;97840;-61
2021/01/11 01:06:48;;;;;;;10.10;7.43;;;;;;;10.46;46.74;101309.28;4884269;28;98911;-62
2021/01/11 01:09:15;;;;;;;9.32;8.15;;;;;;;10.43;46.73;101307.88;4883145;28;127964;-61
2021/01/11 01:11:42;;;;;;;10.30;8.23;;;;;;;10.49;47.00;101303.38;4884183;28;126958;-61
2021/01/11 01:14:08;;;;;;;9.77;7.93;;;;;;;10.40;46.51;101316.47;4866123;28;97833;-61
2021/01/11 01:16:35;;;;;;;9.90;8.00;;;;;;;10.39;46.84;101317.53;4883352;28;98377;-61
2021/01/11 01:19:01;;;;;;;9.95;8.40;;;;;;;10.39;46.84;101320.22;4874626;28;98725;-61
2021/01/11 01:21:27;;;;;;;10.85;7.82;;;;;;;10.35;46.45;101316.38;4883480;28;127822;-61
2021/01/11 01:23:53;;;;;;;9.93;8.43;;;;;;;10.34;46.67;101324.72;4875181;28;116935;-61
2021/01/11 01:26:19;;;;;;;9.75;8.05;;;;;;;10.37;46.92;101321.53;4883767;28;99041;-61
2021/01/11 01:28:45;;;;;;;10.98;8.05;;;;;;;10.35;46.89;101318.28;4875319;28;109745;-61
2021/01/11 01:31:12;;;;;;;10.45;8.13;;;;;;;10.35;46.24;101313.69;4883705;28;98696;-64
2021/01/11 01:33:38;;;;;;;9.18;7.95;;;;;;;10.32;46.88;101316.88;4884154;28;97984;-61
2021/01/11 01:36:05;;;;;;;10.75;8.23;;;;;;;10.32;47.07;101317.69;4883187;28;117000;-61
2021/01/11 01:38:31;;;;;;;10.13;7.78;;;;;;;10.29;46.58;101322.75;4882530;28;115915;-61
2021/01/11 01:40:57;;;;;;;10.57;8.00;;;;;;;10.29;47.14;101328.13;4883792;28;97909;-61
2021/01/11 01:43:23;;;;;;;10.15;7.90;;;;;;;10.27;47.15;101322.19;4865462;28;117768;-61
2021/01/11 01:45:49;;;;;;;9.95;8.00;;;;;;;10.28;46.19;101313.03;4882848;28;126717;-61
2021/01/11 01:48:15;;;;;;;9.13;7.47;;;;;;;10.35;46.65;101302.09;4883239;28;98831;-61
2021/01/11 01:50:41;;;;;;;9.15;7.45;;;;;;;10.28;46.92;101299.56;4864972;28;127470;-61
2021/01/11 01:53:08;;;;;;;10.50;7.43;;;;;;;10.26;46.98;101296.31;4865388;28;98812;-61
2021/01/11 01:55:36;;;;;;;9.27;7.15;;;;;;;10.36;47.08;101282.16;4896403;28;117937;-61
2021/01/11 01:58:04;;;;;;;10.35;7.65;;;;;;;10.25;46.65;101273.91;4899996;28;98888;-62
2021/01/11 02:00:31;;;;;;;9.73;7.70;;;;;;;10.24;46.83;101261.47;4903273;28;98167;-61
2021/01/11 02:02:57;;;;;;;10.88;7.50;;;;;;;10.23;47.35;101265.22;4903203;28;97892;-61
2021/01/11 02:05:23;;;;;;;9.95;7.68;;;;;;;10.22;46.31;101262.81;4902072;28;126399;-61
2021/01/11 02:07:53;;;;;;;8.98;7.03;;;;;;;10.20;46.98;101263.03;4901488;28;122450;-61
2021/01/11 02:10:29;;;;;;;8.60;7.35;;;;;;;10.22;46.74;101265.50;4903010;28;98328;-61
2021/01/11 02:13:31;;;;;;;9.02;7.32;;;;;;;10.19;46.78;101264.09;4883742;28;106395;-61
2021/01/11 02:16:17;;;;;;;9.57;7.40;;;;;;;10.15;46.47;101272.91;4884219;28;98772;-61
2021/01/11 02:19:34;;;;;;;9.25;7.32;;;;;;;10.15;47.24;101273.72;4884067;28;119310;-61
2021/01/11 02:22:26;;;;;;;8.57;6.75;;;;;;;10.11;46.64;101277.97;4829282;28;98250;-61
2021/01/11 02:25:26;;;;;;;9.57;7.10;;;;;;;10.08;47.17;101276.56;4811533;28;97805;-61
2021/01/11 02:27:58;;;;;;;8.85;7.18;;;;;;;10.08;46.71;101275.75;4893874;28;98669;-61
2021/01/11 02:30:34;;;;;;;9.25;7.20;;;;;;;10.02;46.98;101276.72;4884247;28;98787;-61
2021/01/11 02:33:14;;;;;;;9.43;6.90;;;;;;;10.02;46.51;101284.81;4885157;28;98051;-61
2021/01/11 02:35:49;;;;;;;8.45;6.60;;;;;;;10.03;47.27;101284.59;4885232;28;97899;-61
2021/01/11 02:38:19;;;;;;;9.02;6.88;;;;;;;10.05;46.65;101289.72;4903388;28;98277;-61
2021/01/11 02:40:45;;;;;;;9.30;7.35;;;;;;;10.05;46.94;101284.31;4884395;28;118041;-61
2021/01/11 02:43:12;;;;;;;10.07;7.70;;;;;;;10.03;46.58;101289.16;4900772;28;127383;-61
2021/01/11 02:45:38;;;;;;;8.63;6.90;;;;;;;10.06;46.57;101294.88;4883686;28;98588;-61
2021/01/11 02:48:38;;;;;;;8.85;7.05;;;;;;;10.00;46.33;101298.53;4901528;28;110359;-61
2021/01/11 02:51:22;;;;;;;9.25;7.07;;;;;;;9.96;47.08;101288.50;4883016;28;120153;-61
2021/01/11 02:54:37;;;;;;;9.07;7.30;;;;;;;9.97;46.84;101292.81;4902613;28;98048;-61
2021/01/11 02:57:27;;;;;;;8.10;6.70;;;;;;;9.99;46.99;101296.91;4800349;29;97883;-61
2021/01/11 02:59:55;;;;;;;8.85;6.60;;;;;;;9.98;47.21;101283.66;4800332;29;98435;-61
2021/01/11 03:02:22;;;;;;;9.02;6.70;;;;;;;9.94;47.06;101280.66;4846104;28;120103;-61
2021/01/11 03:04:48;;;;;;;8.07;6.50;;;;;;;9.92;47.05;101277.38;4864549;28;111498;-61
2021/01/11 03:07:14;;;;;;;8.68;6.95;;;;;;;10.01;47.30;101273.22;4880672;28;109881;-61
2021/01/11 03:09:41;;;;;;;8.20;6.97;;;;;;;9.95;46.88;101274.22;4882520;28;98629;-61
2021/01/11 03:12:10;;;;;;;9.57;7.00;;;;;;;9.95;46.33;101271.53;4881789;28;98437;-61
2021/01/11 03:14:36;;;;;;;7.90;6.53;;;;;;;10.00;46.41;101262.69;4883013;28;98205;-61
2021/01/11 03:17:02;;;;;;;8.32;6.90;;;;;;;9.95;46.69;101262.63;4861443;28;105686;-61
2021/01/11 03:19:28;;;;;;;9.15;6.70;;;;;;;9.90;47.12;101257.13;4881060;28;98654;-61
2021/01/11 03:21:54;;;;;;;9.50;7.05;;;;;;;9.90;46.80;101254.44;4881703;28;128528;-62
2021/01/11 03:24:21;;;;;;;8.02;6.28;;;;;;;9.94;46.73;101248.34;4881418;28;122967;-61
2021/01/11 03:26:48;;;;;;;8.80;6.50;;;;;;;9.94;46.73;101247.50;4880320;28;97786;-61
2021/01/11 03:29:14;;;;;;;8.82;6.68;;;;;;;9.90;46.90;101241.78;4874524;28;98370;-61
2021/01/11 03:31:41;;;;;;;8.95;6.55;;;;;;;9.95;45.97;101239.19;4879789;28;111390;-61
2021/01/11 03:34:10;;;;;;;8.15;6.40;;;;;;;9.92;46.39;101241.56;4875003;28;118079;-61
2021/01/11 03:36:37;;;;;;;8.55;6.38;;;;;;;9.87;46.08;101236.09;4868350;28;98022;-61
2021/01/11 03:39:07;;;;;;;7.72;6.53;;;;;;;9.86;46.55;101221.78;4884683;28;104976;-62
2021/01/11 03:41:37;;;;;;;7.05;6.07;;;;;;;9.85;46.46;101230.94;4884598;28;99209;-61
2021/01/11 03:44:04;;;;;;;7.75;6.20;;;;;;;9.82;46.90;101223.34;4877511;28;98828;-61
2021/01/11 03:46:30;;;;;;;7.78;6.13;;;;;;;9.82;46.58;101217.94;4885583;28;107475;-61
2021/01/11 03:48:56;;;;;;;7.72;6.35;;;;;;;9.90;46.40;101220.25;4884469;28;99086;-61
2021/01/11 03:51:23;;;;;;;7.40;5.82;;;;;;;9.88;46.74;101211.59;4885506;28;98591;-61
2021/01/11 03:53:49;;;;;;;7.72;6.10;;;;;;;9.89;46.29;101215.13;4877434;28;106185;-61
2021/01/11 03:56:15;;;;;;;7.28;5.82;;;;;;;9.81;46.43;101205.56;4885359;28;97882;-61
2021/01/11 03:58:41;;;;;;;6.68;5.97;;;;;;;9.85;46.46;101206.69;4884554;28;127765;-61
2021/01/11 04:01:07;;;;;;;7.85;6.28;;;;;;;9.80;46.47;101206.63;4884774;28;98785;-61
2021/01/11 04:03:33;;;;;;;7.20;5.63;;;;;;;9.77;46.12;101209.81;4883024;28;117825;-61
2021/01/11 04:05:59;;;;;;;7.28;6.03;;;;;;;9.86;46.03;101212.91;4885473;28;97800;-62
2021/01/11 04:08:26;;;;;;;7.82;5.90;;;;;;;9.78;46.75;101208.72;4858735;28;113217;-61
2021/01/11 04:10:52;;;;;;;6.57;5.55;;;;;;;9.74;46.08;101196.81;4884124;28;119098;-61
2021/01/11 04:13:19;;;;;;;7.45;5.88;;;;;;;9.79;46.25;101199.63;4881688;28;127280;-61
2021/01/11 04:15:45;;;;;;;7.15;5.63;;;;;;;9.78;45.77;101195.28;4885718;28;97735;-61
2021/01/11 04:18:11;;;;;;;7.28;5.60;;;;;;;9.80;46.26;101202.06;4866240;28;126826;-61
2021/01/11 04:20:37;;;;;;;7.03;5.78;;;;;;;9.77;46.19;101191.75;4866125;28;109826;-61
2021/01/11 04:23:04;;;;;;;6.95;5.65;;;;;;;9.75;46.18;101196.59;4866928;28;98090;-61
2021/01/11 04:25:30;;;;;;;7.32;5.60;;;;;;;9.75;46.38;101204.66;4867903;28;97849;-61
2021/01/11 04:27:57;;;;;;;7.35;5.60;;;;;;;9.72;46.13;101201.66;4884453;28;97739;-61
2021/01/11 04:30:24;;;;;;;6.82;5.38;;;;;;;9.65;46.42;101204.50;4884476;28;121274;-61
2021/01/11 04:32:51;;;;;;;6.55;5.38;;;;;;;9.65;46.51;101206.38;4887360;28;116829;-61
2021/01/11 04:35:20;;;;;;;7.10;5.45;;;;;;;9.66;46.39;101197.22;4885036;28;103737;-61
2021/01/11 04:37:46;;;;;;;6.35;5.20;;;;;;;9.65;45.90;101199.09;4860936;28;98199;-61
2021/01/11 04:40:12;;;;;;;6.63;5.30;;;;;;;9.65;46.85;101196.41;4881900;28;121615;-61
2021/01/11 04:42:54;;;;;;;6.70;5.43;;;;;;;9.74;46.15;101196.81;4882975;28;118891;-61
2021/01/11 04:45:20;;;;;;;6.65;5.50;;;;;;;9.65;46.70;101188.34;4867465;28;97911;-61
2021/01/11 04:47:51;;;;;;;6.35;5.15;;;;;;;9.59;46.49;101181.25;4883425;28;116667;-61
2021/01/11 04:50:18;;;;;;;6.70;4.78;;;;;;;9.61;46.18;101181.81;4884085;28;98407;-61
2021/01/11 04:52:44;;;;;;;6.10;4.93;;;;;;;9.65;46.05;101176.75;4881817;28;114165;-61
2021/01/11 04:55:11;;;;;;;5.57;4.80;;;;;;;9.63;46.36;101182.41;4875841;28;98047;-61
2021/01/11 04:57:42;;;;;;;6.65;4.90;;;;;;;9.62;45.72;101167.28;4884981;28;120402;-61
2021/01/11 05:00:10;;;;;;;5.95;5.10;;;;;;;9.60;46.55;101174.81;4903593;28;97851;-61
2021/01/11 05:02:46;;;;;;;5.95;4.80;;;;;;;9.63;45.80;101170.78;4898453;28;98476;-61
2021/01/11 05:05:12;;;;;;;6.03;4.85;;;;;;;9.62;46.08;101169.97;4900683;28;97874;-61
2021/01/11 05:07:39;;;;;;;5.47;4.57;;;;;;;9.65;45.89;101176.75;4898623;28;100504;-61
2021/01/11 05:10:11;;;;;;;6.07;4.68;;;;;;;9.58;45.55;101172.34;4901288;28;98283;-61
2021/01/11 05:12:37;;;;;;;5.63;4.95;;;;;;;9.66;46.15;101183.75;4897327;28;98129;-61
2021/01/11 05:15:17;;;;;;;6.40;4.53;;;;;;;9.62;45.64;101186.13;4897700;28;101282;-61
2021/01/11 05:17:44;;;;;;;6.28;4.55;;;;;;;9.69;46.03;101191.34;4903188;28;98321;-61
2021/01/11 05:20:34;;;;;;;4.93;4.15;;;;;;;9.56;46.41;101187.13;4885433;28;105167;-61
2021/01/11 05:23:09;;;;;;;5.03;4.22;;;;;;;9.58;45.55;101185.78;4902657;28;98178;-61
2021/01/11 05:25:38;;;;;;;5.78;4.72;;;;;;;9.58;45.89;101187.66;4903154;28;97672;-61
2021/01/11 05:28:30;;;;;;;5.28;4.40;;;;;;;9.62;45.84;101172.66;4902730;28;98023;-61
2021/01/11 05:30:57;;;;;;;4.95;4.20;;;;;;;9.59;46.12;101181.25;4896498;28;128231;-61
2021/01/11 05:33:24;;;;;;;5.30;4.15;;;;;;;9.63;45.44;101179.69;4894689;28;98107;-61
2021/01/11 05:36:08;;;;;;;5.13;4.25;;;;;;;9.65;45.39;101176.75;4884312;28;97885;-61
2021/01/11 05:38:39;;;;;;;5.05;4.20;;;;;;;9.65;45.35;101174.06;4894678;28;98514;-61
2021/01/11 05:41:18;;;;;;;5.30;4.20;;;;;;;9.68;45.39;101166.31;4902181;28;113894;-61
2021/01/11 05:43:47;;;;;;;4.93;4.18;;;;;;;9.72;46.23;101170.16;4893727;28;98494;-61
2021/01/11 05:46:27;;;;;;;4.78;4.13;;;;;;;9.68;45.67;101177.09;4902300;28;97772;-61
2021/01/11 05:49:07;;;;;;;4.80;3.92;;;;;;;9.70;45.70;101169.56;4893145;28;115759;-61
2021/01/11 05:51:35;;;;;;;4.72;3.92;;;;;;;9.73;45.73;101161.00;4901193;28;99039;-61
2021/01/11 05:54:01;;;;;;;5.15;4.00;;;;;;;9.77;45.69;101170.22;4892584;28;98082;-61
2021/01/11 05:56:27;;;;;;;5.03;3.88;;;;;;;9.80;45.82;101167.06;4897159;28;97975;-61
2021/01/11 05:59:09;;;;;;;5.20;4.00;;;;;;;9.76;46.03;101163.22;4898515;28;98161;-61
2021/01/11 06:01:36;;;;;;;4.43;3.67;;;;;;;9.76;45.42;101165.09;4883815;28;105641;-61
2021/01/11 06:04:04;;;;;;;5.35;3.97;;;;;;;9.79;45.65;101165.44;4875946;28;123894;-61
2021/01/11 06:06:30;;;;;;;5.90;3.78;;;;;;;9.84;45.67;101160.13;4900812;28;98400;-61
2021/01/11 06:08:56;;;;;;;4.47;3.60;;;;;;;9.88;45.86;101157.75;4893923;28;99672;-61
2021/01/11 06:11:25;;;;;;;4.22;3.75;;;;;;;9.83;45.58;101158.50;4901368;28;118775;-61
2021/01/11 06:13:56;;;;;;;4.20;3.42;;;;;;;9.86;45.47;101161.72;4894819;28;98012;-61
2021/01/11 06:16:24;;;;;;;4.60;3.75;;;;;;;9.86;45.66;101156.34;4902551;28;97811;-61
2021/01/11 06:18:52;;;;;;;4.40;3.65;;;;;;;9.87;45.88;101163.38;4894663;28;98166;-61
2021/01/11 06:21:18;;;;;;;4.63;3.72;;;;;;;9.86;45.68;101159.84;4884252;28;110421;-61
2021/01/11 06:23:44;;;;;;;4.53;4.05;;;;;;;9.90;45.81;101160.19;4884073;28;116322;-61
2021/01/11 06:26:26;;;;;;;4.10;3.20;;;;;;;9.86;45.98;101167.13;4900937;28;98102;-61
2021/01/11 06:28:52;;;;;;;5.10;4.05;;;;;;;9.88;45.98;101165.81;4894465;28;98670;-61
2021/01/11 06:31:19;;;;;;;4.90;3.70;;;;;;;9.90;45.68;101163.69;4901176;28;115209;-61
2021/01/11 06:33:45;;;;;;;4.35;3.65;;;;;;;9.96;45.07;101164.59;4883851;28;116243;-61
2021/01/11 06:36:31;;;;;;;4.60;3.85;;;;;;;9.92;45.44;101164.28;4900683;28;116789;-61
2021/01/11 06:39:07;;;;;;;5.22;3.65;;;;;;;9.93;45.30;101165.91;4894407;28;98634;-61
2021/01/11 06:41:33;;;;;;;4.00;3.45;;;;;;;9.91;45.12;101168.03;4885924;28;98696;-62
2021/01/11 06:44:05;;;;;;;4.43;3.40;;;;;;;9.90;45.28;101166.38;4892726;28;107948;-61
2021/01/11 06:46:31;;;;;;;3.53;3.00;;;;;;;9.92;45.35;101164.28;4902378;28;97929;-61
2021/01/11 06:48:58;;;;;;;4.47;3.50;;;;;;;9.95;45.44;101171.88;4894129;28;98329;-61
2021/01/11 06:51:43;;;;;;;4.53;3.65;;;;;;;9.93;45.82;101171.28;4893872;28;100147;-61
2021/01/11 06:54:13;;;;;;;3.95;3.20;;;;;;;9.99;45.23;101175.69;4876021;28;98535;-61
2021/01/11 06:56:44;;;;;;;3.50;3.00;;;;;;;9.98;45.25;101173.22;4901542;28;107286;-62
2021/01/11 06:59:17;;;;;;;4.28;3.08;;;;;;;9.98;45.21;101173.22;4893902;28;98837;-61
2021/01/11 07:01:44;;;;;;;3.85;3.20;;;;;;;10.03;44.98;101176.84;4902617;28;98473;-61
2021/01/11 07:04:11;;;;;;;3.90;2.95;;;;;;;10.02;45.42;101169.81;4894419;28;97999;-61
2021/01/11 07:06:38;;;;;;;3.92;3.10;;;;;;;10.02;45.08;101169.81;4883705;28;104109;-61
2021/01/11 07:09:19;;;;;;;3.70;3.17;;;;;;;10.05;45.18;101181.97;4896682;28;99661;-61
2021/01/11 07:11:50;;;;;;;4.25;3.30;;;;;;;10.07;45.38;101174.47;4903901;28;99530;-61
2021/01/11 07:14:23;;;;;;;4.45;3.08;;;;;;;10.08;45.63;101174.22;4902915;28;117123;-62
2021/01/11 07:16:53;;;;;;;4.47;3.30;;;;;;;10.08;45.00;101168.00;4903755;28;97861;-62
2021/01/11 07:19:37;;;;;;;4.18;3.00;;;;;;;10.08;45.16;101163.44;4879168;28;98795;-61
2021/01/11 07:22:09;;;;;;;3.45;2.90;;;;;;;10.14;45.28;101166.19;4904100;28;98606;-62
2021/01/11 07:24:42;;;;;;;4.15;2.97;;;;;;;10.13;45.61;101169.97;4896437;28;98278;-61
2021/01/11 07:27:09;;;;;;;3.53;3.00;;;;;;;10.16;44.90;101170.28;4902806;28;118182;-61
2021/01/11 07:29:35;;;;;;;3.88;2.75;;;;;;;10.18;45.47;101167.34;4898099;28;118301;-61
2021/01/11 07:32:01;;;;;;;5.18;3.00;;;;;;;10.23;45.17;101168.25;4903701;28;109260;-61
2021/01/11 07:34:27;;;;;;;3.72;3.22;;;;;;;10.26;45.71;101161.56;4897281;28;98053;-61
2021/01/11 07:36:57;;;;;;;3.65;2.90;;;;;;;10.27;45.27;101155.94;4904967;28;99073;-61
2021/01/11 07:39:23;;;;;;;4.53;3.03;;;;;;;10.31;45.26;101159.75;4896867;28;98479;-61
2021/01/11 07:41:50;;;;;;;3.53;3.00;;;;;;;10.35;45.61;101152.00;4903109;28;110890;-61
2021/01/11 07:44:34;;;;;;;3.67;3.10;;;;;;;10.36;45.25;101156.31;4878463;28;107804;-61
2021/01/11 07:47:05;;;;;;;4.13;3.10;;;;;;;10.43;45.07;101156.94;4886913;28;97755;-61
2021/01/11 07:49:35;;;;;;;3.90;3.30;;;;;;;10.51;45.88;101166.47;4904742;28;98429;-61
2021/01/11 07:52:12;;;;;;;4.15;2.78;;;;;;;10.54;45.85;101155.22;4904152;28;98373;-61
2021/01/11 07:54:39;;;;;;;3.67;2.80;;;;;;;10.57;45.37;101152.84;4899086;28;98116;-61
2021/01/11 07:57:09;;;;;;;3.45;2.80;;;;;;;10.64;45.31;101149.13;4903072;28;109167;-61
2021/01/11 07:59:35;;;;;;;4.28;2.90;;;;;;;10.67;45.07;101145.91;4897968;28;98343;-61
2021/01/11 08:02:03;;;;;;;5.05;3.28;;;;;;;10.74;45.31;101139.28;4904973;28;98694;-61
2021/01/11 08:04:36;;;;;;;3.85;3.08;;;;;;;10.79;45.69;101143.91;4880306;28;98319;-61
2021/01/11 08:07:14;;;;;;;4.03;2.80;;;;;;;10.87;45.80;101148.84;4903836;28;97825;-61
2021/01/11 08:09:41;;;;;;;3.70;3.05;;;;;;;10.92;45.20;101156.19;4896345;28;116505;-61
2021/01/11 08:12:20;;;;;;;4.32;3.15;;;;;;;10.94;45.36;101154.06;4902034;28;107407;-61
2021/01/11 08:14:47;;;;;;;3.60;2.90;;;;;;;11.01;45.51;101154.69;4899898;28;98156;-61
2021/01/11 08:17:21;;;;;;;3.65;2.88;;;;;;;11.06;45.32;101150.16;4901925;28;99497;-61
2021/01/11 08:19:58;;;;;;;4.03;3.40;;;;;;;11.13;45.57;101159.94;4898197;28;102546;-61
2021/01/11 08:22:27;;;;;;;3.83;3.17;;;;;;;11.18;45.89;101154.59;4900479;28;99489;-61
2021/01/11 08:24:55;;;;;;;4.10;3.03;;;;;;;11.21;45.99;101145.97;4899503;28;103637;-62
2021/01/11 08:27:36;;;;;;;4.90;3.28;;;;;;;11.26;46.20;101148.72;4883256;28;98016;-61
2021/01/11 08:30:09;;;;;;;4.03;3.25;;;;;;;11.34;45.75;101139.34;4899948;28;98342;-62
2021/01/11 08:32:35;;;;;;;4.03;3.40;;;;;;;11.40;46.28;101138.34;4886382;28;99253;-61
2021/01/11 08:35:22;;;;;;;4.53;3.20;;;;;;;11.46;46.52;101140.81;4886630;28;99136;-61
2021/01/11 08:37:48;;;;;;;5.53;3.65;;;;;;;11.49;46.51;101145.69;4896542;28;97937;-61
2021/01/11 08:40:34;;;;;;;4.68;3.75;;;;;;;11.57;46.75;101147.13;4901984;28;127851;-61
2021/01/11 08:43:13;;;;;;;4.50;3.60;;;;;;;11.61;46.79;101142.81;4899471;28;99065;-61
2021/01/11 08:45:41;;;;;;;4.57;3.72;;;;;;;11.66;46.46;101142.84;4903470;28;98391;-62
2021/01/11 08:48:15;;;;;;;4.45;3.30;;;;;;;11.73;46.81;101143.47;4877605;28;97941;-61
2021/01/11 08:50:50;;;;;;;5.45;4.05;;;;;;;11.82;46.66;101146.50;4903794;28;98689;-62
2021/01/11 08:53:25;;;;;;;4.45;3.65;;;;;;;11.89;46.98;101147.13;4895885;28;98416;-61
2021/01/11 08:56:29;;;;;;;4.55;3.67;;;;;;;12.04;46.32;101141.81;4901871;28;98377;-61
2021/01/11 08:58:56;;;;;;;3.90;3.50;;;;;;;12.17;46.44;101140.53;4904166;28;97924;-62
2021/01/11 09:01:25;;;;;;;3.95;3.38;;;;;;;12.41;46.29;101137.41;4901509;28;99278;-61
2021/01/11 09:03:58;;;;;;;4.03;3.45;;;;;;;13.14;45.45;101129.28;4895602;28;98775;-62
2021/01/11 09:06:44;;;;;;;3.78;3.15;;;;;;;13.79;44.54;101130.41;4902854;28;98110;-61
2021/01/11 09:09:14;;;;;;;3.55;3.05;;;;;;;14.39;43.87;101117.00;4896047;28;97773;-61
2021/01/11 09:11:41;;;;;;;3.75;3.25;;;;;;;14.86;43.64;101121.97;4884569;28;117394;-62
2021/01/11 09:14:15;;;;;;;3.45;3.15;;;;;;;15.18;43.32;101126.13;4878473;28;110249;-62
2021/01/11 09:16:42;;;;;;;3.60;3.30;;;;;;;15.62;43.39;101117.88;4902707;28;97829;-62
2021/01/11 09:19:15;;;;;;;4.25;3.03;;;;;;;16.06;43.26;101130.53;4895988;28;97764;-62
2021/01/11 09:21:42;;;;;;;3.70;3.00;;;;;;;16.46;43.04;101128.47;4897434;28;98262;-62
2021/01/11 09:24:09;;;;;;;4.13;2.88;;;;;;;16.88;42.98;101137.75;4891913;28;114848;-62
2021/01/11 09:26:36;;;;;;;3.65;3.15;;;;;;;17.29;42.42;101143.44;4902803;28;106382;-61
2021/01/11 09:29:02;;;;;;;3.67;3.35;;;;;;;17.65;42.42;101138.22;4892773;28;109555;-62
2021/01/11 09:31:28;;;;;;;3.83;3.13;;;;;;;17.99;42.30;101142.56;4901650;28;118230;-62
2021/01/11 09:33:54;;;;;;;3.13;2.83;;;;;;;18.31;41.50;101141.69;4893436;28;127879;-62
2021/01/11 09:36:21;;;;;;;3.50;2.95;;;;;;;18.48;42.18;101143.81;4901263;28;127756;-62
2021/01/11 09:38:50;;;;;;;3.45;2.60;;;;;;;18.66;42.16;101144.78;4884815;28;97958;-62
2021/01/11 09:41:17;;;;;;;3.13;2.78;;;;;;;18.70;42.09;101143.09;4901985;28;97820;-62
2021/01/11 09:43:43;;;;;;;3.28;2.60;;;;;;;18.65;42.57;101140.44;4894166;28;127497;-62
2021/01/11 09:46:10;;;;;;;2.80;2.45;;;;;;;18.62;42.74;101141.06;4903220;28;108607;-62
2021/01/11 09:48:36;;;;;;;3.10;2.80;;;;;;;18.48;43.14;101140.28;4894365;28;117254;-61
2021/01/11 09:51:03;;;;;;;2.90;2.65;;;;;;;18.30;43.66;101142.78;4901678;28;108650;-62
2021/01/11 09:53:29;;;;;;;3.03;2.72;;;;;;;18.01;44.48;101136.81;4900743;28;109239;-62
2021/01/11 09:55:55;;;;;;;3.10;2.72;;;;;;;17.83;44.95;101139.28;4901860;28;109252;-62
2021/01/11 09:58:21;;;;;;;3.17;2.67;;;;;;;17.69;44.92;101145.81;4895058;28;97916;-62
2021/01/11 10:00:47;;;;;;;2.78;2.40;;;;;;;17.59;44.96;101146.78;4901833;28;99033;-62
2021/01/11 10:03:13;;;;;;;3.03;2.40;;;;;;;17.56;45.04;101145.44;4876518;28;117338;-62
2021/01/11 10:05:40;;;;;;;3.20;2.78;;;;;;;17.57;45.13;101146.28;4902098;28;127351;-62
2021/01/11 10:08:06;;;;;;;4.13;2.95;;;;;;;17.54;45.00;101139.50;4903290;28;97883;-62
2021/01/11 10:10:32;;;;;;;3.05;2.67;;;;;;;17.49;45.06;101136.84;4902647;28;125433;-62
2021/01/11 10:12:58;;;;;;;3.17;2.60;;;;;;;17.40;45.45;101141.34;4876650;28;125922;-62
2021/01/11 10:15:24;;;;;;;3.53;3.00;;;;;;;17.32;45.48;101139.31;4891418;28;111065;-62
2021/01/11 10:17:50;;;;;;;3.45;3.00;;;;;;;17.15;45.65;101142.56;4897646;28;118266;-62
2021/01/11 10:20:16;;;;;;;3.63;3.05;;;;;;;16.79;46.99;101148.50;4900083;28;123595;-62
2021/01/11 10:22:44;;;;;;;3.20;2.80;;;;;;;16.58;46.65;101144.38;4895499;28;128089;-62
2021/01/11 10:25:12;;;;;;;3.30;2.83;;;;;;;16.27;46.93;101144.75;4899015;28;97924;-62
2021/01/11 10:27:38;;;;;;;3.28;2.97;;;;;;;16.08;47.10;101141.97;4897353;28;97858;-61
2021/01/11 10:30:05;;;;;;;3.47;3.17;;;;;;;15.88;47.27;101129.38;4900473;28;98845;-62
2021/01/11 10:32:31;;;;;;;3.08;2.78;;;;;;;15.75;47.67;101130.03;4897645;28;99032;-62
2021/01/11 10:34:59;;;;;;;3.22;2.75;;;;;;;15.58;47.99;101125.00;4898564;28;127355;-62
2021/01/11 10:37:25;;;;;;;3.83;3.00;;;;;;;15.46;47.81;101116.41;4891229;28;98080;-62
2021/01/11 10:39:51;;;;;;;3.38;3.05;;;;;;;15.39;47.76;101105.84;4896567;28;119514;-62
2021/01/11 10:42:17;;;;;;;3.80;3.13;;;;;;;15.35;47.73;101112.94;4880789;28;127329;-62
2021/01/11 10:44:43;;;;;;;3.53;3.08;;;;;;;15.29;48.15;101100.50;4899425;28;126696;-62
2021/01/11 10:47:09;;;;;;;3.22;2.85;;;;;;;15.26;48.04;101098.34;4903069;28;116880;-62
2021/01/11 10:49:35;;;;;;;3.65;3.17;;;;;;;15.21;47.62;101096.50;4897973;28;128906;-62
2021/01/11 10:52:01;;;;;;;3.67;3.08;;;;;;;15.17;47.78;101089.19;4902802;28;128197;-62
2021/01/11 10:54:28;;;;;;;3.53;3.03;;;;;;;15.12;47.45;101089.22;4879330;28;116218;-62
2021/01/11 10:56:54;;;;;;;3.40;3.10;;;;;;;15.09;47.86;101085.19;4906371;28;98251;-62
2021/01/11 10:59:20;;;;;;;3.83;3.03;;;;;;;15.06;47.97;101080.31;4887955;28;98733;-62
2021/01/11 11:01:50;;;;;;;3.30;2.80;;;;;;;14.95;48.39;101090.41;4887314;28;98172;-62
2021/01/11 11:04:16;;;;;;;3.25;2.90;;;;;;;14.91;48.50;101089.34;4897136;28;102089;-62
2021/01/11 11:06:42;;;;;;;3.78;3.00;;;;;;;14.84;48.69;101082.63;4906163;28;97718;-62
2021/01/11 11:09:08;;;;;;;3.35;2.97;;;;;;;14.76;48.87;101078.59;4904323;28;126871;-62
2021/01/11 11:11:35;;;;;;;3.38;3.05;;;;;;;14.75;49.02;101076.97;4905154;28;98368;-62
2021/01/11 11:14:01;;;;;;;3.38;3.00;;;;;;;14.70;49.01;101074.31;4894937;28;127662;-62
2021/01/11 11:16:27;;;;;;;3.65;2.90;;;;;;;14.67;49.22;101072.16;4902730;28;118150;-62
2021/01/11 11:18:53;;;;;;;3.05;2.63;;;;;;;14.61;49.34;101078.69;4904309;28;126942;-62
2021/01/11 11:21:19;;;;;;;3.33;3.00;;;;;;;14.58;49.46;101076.50;4905737;28;98464;-62
2021/01/11 11:23:45;;;;;;;3.35;2.60;;;;;;;14.55;49.24;101069.75;4898694;28;127898;-61
2021/01/11 11:26:11;;;;;;;3.28;2.67;;;;;;;14.54;49.18;101061.88;4905073;28;116716;-62
2021/01/11 11:28:37;;;;;;;3.10;2.80;;;;;;;14.53;49.01;101057.56;4904956;28;98426;-62
2021/01/11 11:31:05;;;;;;;3.72;3.00;;;;;;;14.53;48.99;101057.56;4885804;28;101042;-62
2021/01/11 11:33:31;;;;;;;3.38;2.95;;;;;;;14.49;49.02;101057.31;4897003;28;98253;-61
2021/01/11 11:35:57;;;;;;;2.88;2.47;;;;;;;14.47;49.23;101040.47;4904966;28;97923;-62